sensor_id;sensor_type;location;lat;lon;timestamp;temperature;humidity
3334;DHT22;1679;50.392;8.008;2023-02-04T00:00:58;7.60;99.90
3334;DHT22;1679;50.392;8.008;2023-02-04T00:03:25;7.60;99.90
3334;DHT22;1679;50.392;8.008;2023-02-04T00:05:50;7.60;99.90
3334;DHT22;1679;50.392;8.008;2023-02-04T00:08:16;7.60;99.90
3334;DHT22;1679;50.392;8.008;2023-02-04T00:10:41;7.60;99.90
3334;DHT22;1679;50.392;8.008;2023-02-04T00:13:08;7.60;99.90
3334;DHT22;1679;50.392;8.008;2023-02-04T00:15:33;7.60;99.90
3334;DHT22;1679;50.392;8.008;2023-02-04T00:18:00;7.60;99.90
3334;DHT22;1679;50.392;8.008;2023-02-04T00:20:25;7.60;99.90
3334;DHT22;1679;50.392;8.008;2023-02-04T00:22:52;7.60;99.90
3334;DHT22;1679;50.392;8.008;2023-02-04T00:25:17;7.60;99.90
3334;DHT22;1679;50.392;8.008;2023-02-04T00:27:44;7.60;99.90
3334;DHT22;1679;50.392;8.008;2023-02-04T00:30:10;7.60;99.90
3334;DHT22;1679;50.392;8.008;2023-02-04T00:32:36;7.50;99.90
3334;DHT22;1679;50.392;8.008;2023-02-04T00:35:01;7.50;99.90
3334;DHT22;1679;50.392;8.008;2023-02-04T00:37:30;7.50;99.90
3334;DHT22;1679;50.392;8.008;2023-02-04T00:39:55;7.60;99.90
3334;DHT22;1679;50.392;8.008;2023-02-04T00:42:21;7.50;99.90
3334;DHT22;1679;50.392;8.008;2023-02-04T00:44:47;7.40;99.90
3334;DHT22;1679;50.392;8.008;2023-02-04T00:47:12;7.40;99.90
3334;DHT22;1679;50.392;8.008;2023-02-04T00:49:38;7.30;99.90
3334;DHT22;1679;50.392;8.008;2023-02-04T00:52:03;7.30;99.90
3334;DHT22;1679;50.392;8.008;2023-02-04T00:54:29;7.30;99.90
3334;DHT22;1679;50.392;8.008;2023-02-04T00:56:55;7.20;99.90
3334;DHT22;1679;50.392;8.008;2023-02-04T00:59:20;7.20;99.90
3334;DHT22;1679;50.392;8.008;2023-02-04T01:01:46;7.20;99.90
3334;DHT22;1679;50.392;8.008;2023-02-04T01:04:13;7.20;99.90
3334;DHT22;1679;50.392;8.008;2023-02-04T01:06:39;7.20;99.90
3334;DHT22;1679;50.392;8.008;2023-02-04T01:09:04;7.20;99.90
3334;DHT22;1679;50.392;8.008;2023-02-04T01:11:30;7.20;99.90
3334;DHT22;1679;50.392;8.008;2023-02-04T01:13:56;7.20;99.90
3334;DHT22;1679;50.392;8.008;2023-02-04T01:16:23;7.20;99.90
3334;DHT22;1679;50.392;8.008;2023-02-04T01:18:50;7.10;99.90
3334;DHT22;1679;50.392;8.008;2023-02-04T01:21:17;7.10;99.90
3334;DHT22;1679;50.392;8.008;2023-02-04T01:23:42;7.00;99.90
3334;DHT22;1679;50.392;8.008;2023-02-04T01:26:08;6.90;99.90
3334;DHT22;1679;50.392;8.008;2023-02-04T01:28:33;6.90;99.90
3334;DHT22;1679;50.392;8.008;2023-02-04T01:31:00;6.90;99.90
3334;DHT22;1679;50.392;8.008;2023-02-04T01:33:25;6.90;99.90
3334;DHT22;1679;50.392;8.008;2023-02-04T01:35:51;6.90;99.90
3334;DHT22;1679;50.392;8.008;2023-02-04T01:38:18;6.90;99.90
3334;DHT22;1679;50.392;8.008;2023-02-04T01:40:45;7.00;99.90
3334;DHT22;1679;50.392;8.008;2023-02-04T01:43:11;7.00;99.90
3334;DHT22;1679;50.392;8.008;2023-02-04T01:45:37;7.00;99.90
3334;DHT22;1679;50.392;8.008;2023-02-04T01:48:04;7.00;99.90
3334;DHT22;1679;50.392;8.008;2023-02-04T01:50:31;7.00;99.90
3334;DHT22;1679;50.392;8.008;2023-02-04T01:52:57;7.00;99.90
3334;DHT22;1679;50.392;8.008;2023-02-04T01:55:27;7.00;99.90
3334;DHT22;1679;50.392;8.008;2023-02-04T01:57:54;7.00;99.90
3334;DHT22;1679;50.392;8.008;2023-02-04T02:00:31;6.90;99.90
3334;DHT22;1679;50.392;8.008;2023-02-04T02:02:59;6.90;99.90
3334;DHT22;1679;50.392;8.008;2023-02-04T02:05:49;6.90;99.90
3334;DHT22;1679;50.392;8.008;2023-02-04T02:08:15;7.00;99.90
3334;DHT22;1679;50.392;8.008;2023-02-04T02:10:43;7.00;99.90
3334;DHT22;1679;50.392;8.008;2023-02-04T02:13:12;7.00;99.90
3334;DHT22;1679;50.392;8.008;2023-02-04T02:15:41;7.00;99.90
3334;DHT22;1679;50.392;8.008;2023-02-04T02:18:07;6.90;99.90
3334;DHT22;1679;50.392;8.008;2023-02-04T02:20:33;6.90;99.90
3334;DHT22;1679;50.392;8.008;2023-02-04T02:23:09;7.00;99.90
3334;DHT22;1679;50.392;8.008;2023-02-04T02:25:37;7.00;99.90
3334;DHT22;1679;50.392;8.008;2023-02-04T02:28:10;7.00;99.90
3334;DHT22;1679;50.392;8.008;2023-02-04T02:30:39;7.00;99.90
3334;DHT22;1679;50.392;8.008;2023-02-04T02:33:05;7.00;99.90
3334;DHT22;1679;50.392;8.008;2023-02-04T02:35:31;6.90;99.90
3334;DHT22;1679;50.392;8.008;2023-02-04T02:37:57;6.90;99.90
3334;DHT22;1679;50.392;8.008;2023-02-04T02:40:23;6.90;99.90
3334;DHT22;1679;50.392;8.008;2023-02-04T02:42:50;6.90;99.90
3334;DHT22;1679;50.392;8.008;2023-02-04T02:45:22;6.90;99.90
3334;DHT22;1679;50.392;8.008;2023-02-04T02:47:48;6.90;99.90
3334;DHT22;1679;50.392;8.008;2023-02-04T02:50:18;6.90;99.90
3334;DHT22;1679;50.392;8.008;2023-02-04T02:52:44;6.90;99.90
3334;DHT22;1679;50.392;8.008;2023-02-04T02:55:15;6.90;99.90
3334;DHT22;1679;50.392;8.008;2023-02-04T02:57:41;6.90;99.90
3334;DHT22;1679;50.392;8.008;2023-02-04T03:00:25;6.90;99.90
3334;DHT22;1679;50.392;8.008;2023-02-04T03:03:05;6.80;99.90
3334;DHT22;1679;50.392;8.008;2023-02-04T03:05:35;6.80;99.90
3334;DHT22;1679;50.392;8.008;2023-02-04T03:08:03;6.80;99.90
3334;DHT22;1679;50.392;8.008;2023-02-04T03:10:29;6.80;99.90
3334;DHT22;1679;50.392;8.008;2023-02-04T03:12:55;6.80;99.90
3334;DHT22;1679;50.392;8.008;2023-02-04T03:15:21;6.80;99.90
3334;DHT22;1679;50.392;8.008;2023-02-04T03:17:46;6.80;99.90
3334;DHT22;1679;50.392;8.008;2023-02-04T03:20:13;6.80;99.90
3334;DHT22;1679;50.392;8.008;2023-02-04T03:22:39;6.80;99.90
3334;DHT22;1679;50.392;8.008;2023-02-04T03:25:05;6.80;99.90
3334;DHT22;1679;50.392;8.008;2023-02-04T03:27:31;6.70;99.90
3334;DHT22;1679;50.392;8.008;2023-02-04T03:29:58;6.70;99.90
3334;DHT22;1679;50.392;8.008;2023-02-04T03:32:24;6.70;99.90
3334;DHT22;1679;50.392;8.008;2023-02-04T03:34:49;6.60;99.90
3334;DHT22;1679;50.392;8.008;2023-02-04T03:37:15;6.60;99.90
3334;DHT22;1679;50.392;8.008;2023-02-04T03:39:40;6.60;99.90
3334;DHT22;1679;50.392;8.008;2023-02-04T03:42:06;6.70;99.90
3334;DHT22;1679;50.392;8.008;2023-02-04T03:44:31;6.60;99.90
3334;DHT22;1679;50.392;8.008;2023-02-04T03:46:58;6.70;99.90
3334;DHT22;1679;50.392;8.008;2023-02-04T03:49:24;6.70;99.90
3334;DHT22;1679;50.392;8.008;2023-02-04T03:51:51;6.70;99.90
3334;DHT22;1679;50.392;8.008;2023-02-04T03:54:17;6.70;99.90
3334;DHT22;1679;50.392;8.008;2023-02-04T03:56:42;6.70;99.90
3334;DHT22;1679;50.392;8.008;2023-02-04T03:59:08;6.60;99.90
3334;DHT22;1679;50.392;8.008;2023-02-04T04:01:33;6.60;99.90
3334;DHT22;1679;50.392;8.008;2023-02-04T04:03:59;6.60;99.90
3334;DHT22;1679;50.392;8.008;2023-02-04T04:06:25;6.60;99.90
3334;DHT22;1679;50.392;8.008;2023-02-04T04:08:50;6.50;99.90
3334;DHT22;1679;50.392;8.008;2023-02-04T04:11:16;6.50;99.90
3334;DHT22;1679;50.392;8.008;2023-02-04T04:13:41;6.50;99.90
3334;DHT22;1679;50.392;8.008;2023-02-04T04:16:08;6.50;99.90
3334;DHT22;1679;50.392;8.008;2023-02-04T04:18:36;6.60;99.90
3334;DHT22;1679;50.392;8.008;2023-02-04T04:21:02;6.50;99.90
3334;DHT22;1679;50.392;8.008;2023-02-04T04:23:28;6.50;99.90
3334;DHT22;1679;50.392;8.008;2023-02-04T04:25:53;6.50;99.90
3334;DHT22;1679;50.392;8.008;2023-02-04T04:28:19;6.50;99.90
3334;DHT22;1679;50.392;8.008;2023-02-04T04:30:46;6.40;99.90
3334;DHT22;1679;50.392;8.008;2023-02-04T04:33:11;6.30;99.90
3334;DHT22;1679;50.392;8.008;2023-02-04T04:35:37;6.30;99.90
3334;DHT22;1679;50.392;8.008;2023-02-04T04:38:02;6.30;99.90
3334;DHT22;1679;50.392;8.008;2023-02-04T04:40:28;6.30;99.90
3334;DHT22;1679;50.392;8.008;2023-02-04T04:42:54;6.30;99.90
3334;DHT22;1679;50.392;8.008;2023-02-04T04:45:20;6.30;99.90
3334;DHT22;1679;50.392;8.008;2023-02-04T04:47:45;6.30;99.90
3334;DHT22;1679;50.392;8.008;2023-02-04T04:50:11;6.30;99.90
3334;DHT22;1679;50.392;8.008;2023-02-04T04:52:38;6.30;99.90
3334;DHT22;1679;50.392;8.008;2023-02-04T04:55:04;6.30;99.90
3334;DHT22;1679;50.392;8.008;2023-02-04T04:57:30;6.30;99.90
3334;DHT22;1679;50.392;8.008;2023-02-04T04:59:56;6.30;99.90
3334;DHT22;1679;50.392;8.008;2023-02-04T05:02:21;6.30;99.90
3334;DHT22;1679;50.392;8.008;2023-02-04T05:04:47;6.40;99.90
3334;DHT22;1679;50.392;8.008;2023-02-04T05:07:12;6.40;99.90
3334;DHT22;1679;50.392;8.008;2023-02-04T05:09:38;6.40;99.90
3334;DHT22;1679;50.392;8.008;2023-02-04T05:12:05;6.40;99.90
3334;DHT22;1679;50.392;8.008;2023-02-04T05:14:32;6.30;99.90
3334;DHT22;1679;50.392;8.008;2023-02-04T05:16:59;6.30;99.90
3334;DHT22;1679;50.392;8.008;2023-02-04T05:19:24;6.30;99.90
3334;DHT22;1679;50.392;8.008;2023-02-04T05:21:51;6.30;99.90
3334;DHT22;1679;50.392;8.008;2023-02-04T05:24:18;6.30;99.90
3334;DHT22;1679;50.392;8.008;2023-02-04T05:26:43;6.30;99.90
3334;DHT22;1679;50.392;8.008;2023-02-04T05:29:09;6.30;99.90
3334;DHT22;1679;50.392;8.008;2023-02-04T05:31:35;6.30;99.90
3334;DHT22;1679;50.392;8.008;2023-02-04T05:34:00;6.40;99.90
3334;DHT22;1679;50.392;8.008;2023-02-04T05:36:26;6.40;99.90
3334;DHT22;1679;50.392;8.008;2023-02-04T05:38:52;6.30;99.90
3334;DHT22;1679;50.392;8.008;2023-02-04T05:41:17;6.30;99.90
3334;DHT22;1679;50.392;8.008;2023-02-04T05:43:43;6.40;99.90
3334;DHT22;1679;50.392;8.008;2023-02-04T05:46:10;6.40;99.90
3334;DHT22;1679;50.392;8.008;2023-02-04T05:48:35;6.40;99.90
3334;DHT22;1679;50.392;8.008;2023-02-04T05:51:01;6.40;99.90
3334;DHT22;1679;50.392;8.008;2023-02-04T05:53:27;6.40;99.90
3334;DHT22;1679;50.392;8.008;2023-02-04T05:55:52;6.40;99.90
3334;DHT22;1679;50.392;8.008;2023-02-04T05:58:19;6.30;99.90
3334;DHT22;1679;50.392;8.008;2023-02-04T06:00:45;6.30;99.90
3334;DHT22;1679;50.392;8.008;2023-02-04T06:03:10;6.30;99.90
3334;DHT22;1679;50.392;8.008;2023-02-04T06:05:35;6.30;99.90
3334;DHT22;1679;50.392;8.008;2023-02-04T06:08:01;6.30;99.90
3334;DHT22;1679;50.392;8.008;2023-02-04T06:10:28;6.30;99.90
3334;DHT22;1679;50.392;8.008;2023-02-04T06:12:53;6.30;99.90
3334;DHT22;1679;50.392;8.008;2023-02-04T06:15:19;6.20;99.90
3334;DHT22;1679;50.392;8.008;2023-02-04T06:17:45;6.20;99.90
3334;DHT22;1679;50.392;8.008;2023-02-04T06:20:13;6.10;99.90
3334;DHT22;1679;50.392;8.008;2023-02-04T06:22:39;6.20;99.90
3334;DHT22;1679;50.392;8.008;2023-02-04T06:25:05;6.10;99.90
3334;DHT22;1679;50.392;8.008;2023-02-04T06:27:30;6.10;99.90
3334;DHT22;1679;50.392;8.008;2023-02-04T06:29:56;6.10;99.90
3334;DHT22;1679;50.392;8.008;2023-02-04T06:32:22;6.20;99.90
3334;DHT22;1679;50.392;8.008;2023-02-04T06:34:47;6.20;99.90
3334;DHT22;1679;50.392;8.008;2023-02-04T06:37:13;6.10;99.90
3334;DHT22;1679;50.392;8.008;2023-02-04T06:39:40;6.10;99.90
3334;DHT22;1679;50.392;8.008;2023-02-04T06:42:05;6.10;99.90
3334;DHT22;1679;50.392;8.008;2023-02-04T06:44:32;6.00;99.90
3334;DHT22;1679;50.392;8.008;2023-02-04T06:47:01;6.00;99.90
3334;DHT22;1679;50.392;8.008;2023-02-04T06:49:27;5.90;99.90
3334;DHT22;1679;50.392;8.008;2023-02-04T06:51:52;6.00;99.90
3334;DHT22;1679;50.392;8.008;2023-02-04T06:54:20;6.00;99.90
3334;DHT22;1679;50.392;8.008;2023-02-04T06:56:46;6.10;99.90
3334;DHT22;1679;50.392;8.008;2023-02-04T06:59:14;6.10;99.90
3334;DHT22;1679;50.392;8.008;2023-02-04T07:01:39;6.00;99.90
3334;DHT22;1679;50.392;8.008;2023-02-04T07:04:05;6.00;99.90
3334;DHT22;1679;50.392;8.008;2023-02-04T07:06:31;6.00;99.90
3334;DHT22;1679;50.392;8.008;2023-02-04T07:08:58;6.00;99.90
3334;DHT22;1679;50.392;8.008;2023-02-04T07:11:25;6.00;99.90
3334;DHT22;1679;50.392;8.008;2023-02-04T07:13:51;6.00;99.90
3334;DHT22;1679;50.392;8.008;2023-02-04T07:16:18;6.00;99.90
3334;DHT22;1679;50.392;8.008;2023-02-04T07:18:44;6.10;99.90
3334;DHT22;1679;50.392;8.008;2023-02-04T07:21:10;6.10;99.90
3334;DHT22;1679;50.392;8.008;2023-02-04T07:23:35;6.10;99.90
3334;DHT22;1679;50.392;8.008;2023-02-04T07:26:01;6.10;99.90
3334;DHT22;1679;50.392;8.008;2023-02-04T07:28:26;6.10;99.90
3334;DHT22;1679;50.392;8.008;2023-02-04T07:30:52;6.10;99.90
3334;DHT22;1679;50.392;8.008;2023-02-04T07:33:18;6.20;99.90
3334;DHT22;1679;50.392;8.008;2023-02-04T07:35:43;6.10;99.90
3334;DHT22;1679;50.392;8.008;2023-02-04T07:38:09;6.20;99.90
3334;DHT22;1679;50.392;8.008;2023-02-04T07:40:34;6.30;99.90
3334;DHT22;1679;50.392;8.008;2023-02-04T07:43:01;6.30;99.90
3334;DHT22;1679;50.392;8.008;2023-02-04T07:45:26;6.30;99.90
3334;DHT22;1679;50.392;8.008;2023-02-04T07:47:52;6.40;99.90
3334;DHT22;1679;50.392;8.008;2023-02-04T07:50:18;6.40;99.90
3334;DHT22;1679;50.392;8.008;2023-02-04T07:52:43;6.40;99.90
3334;DHT22;1679;50.392;8.008;2023-02-04T07:55:09;6.40;99.90
3334;DHT22;1679;50.392;8.008;2023-02-04T07:57:34;6.40;99.90
3334;DHT22;1679;50.392;8.008;2023-02-04T08:00:00;6.40;99.90
3334;DHT22;1679;50.392;8.008;2023-02-04T08:02:26;6.50;99.90
3334;DHT22;1679;50.392;8.008;2023-02-04T08:04:51;6.60;99.90
3334;DHT22;1679;50.392;8.008;2023-02-04T08:07:17;6.60;99.90
3334;DHT22;1679;50.392;8.008;2023-02-04T08:09:43;6.60;99.90
3334;DHT22;1679;50.392;8.008;2023-02-04T08:12:08;6.70;99.90
3334;DHT22;1679;50.392;8.008;2023-02-04T08:14:34;6.80;99.90
3334;DHT22;1679;50.392;8.008;2023-02-04T08:17:00;6.80;99.90
3334;DHT22;1679;50.392;8.008;2023-02-04T08:19:25;6.90;99.90
3334;DHT22;1679;50.392;8.008;2023-02-04T08:21:51;6.90;99.90
3334;DHT22;1679;50.392;8.008;2023-02-04T08:24:16;6.90;99.90
3334;DHT22;1679;50.392;8.008;2023-02-04T08:26:43;6.90;99.90
3334;DHT22;1679;50.392;8.008;2023-02-04T08:29:09;7.00;99.90
3334;DHT22;1679;50.392;8.008;2023-02-04T08:31:35;7.00;99.90
3334;DHT22;1679;50.392;8.008;2023-02-04T08:34:03;7.10;99.90
3334;DHT22;1679;50.392;8.008;2023-02-04T08:36:29;7.20;99.90
3334;DHT22;1679;50.392;8.008;2023-02-04T08:38:55;7.30;99.90
3334;DHT22;1679;50.392;8.008;2023-02-04T08:41:22;7.30;99.90
3334;DHT22;1679;50.392;8.008;2023-02-04T08:43:47;7.40;99.90
3334;DHT22;1679;50.392;8.008;2023-02-04T08:46:13;7.40;99.90
3334;DHT22;1679;50.392;8.008;2023-02-04T08:48:38;7.40;99.90
3334;DHT22;1679;50.392;8.008;2023-02-04T08:51:04;7.60;99.90
3334;DHT22;1679;50.392;8.008;2023-02-04T08:53:31;7.80;99.90
3334;DHT22;1679;50.392;8.008;2023-02-04T08:55:56;7.80;99.90
3334;DHT22;1679;50.392;8.008;2023-02-04T08:58:23;7.80;99.90
3334;DHT22;1679;50.392;8.008;2023-02-04T09:00:51;7.90;99.90
3334;DHT22;1679;50.392;8.008;2023-02-04T09:03:16;7.80;99.90
3334;DHT22;1679;50.392;8.008;2023-02-04T09:05:42;7.80;99.90
3334;DHT22;1679;50.392;8.008;2023-02-04T09:08:07;7.80;99.90
3334;DHT22;1679;50.392;8.008;2023-02-04T09:10:33;7.70;99.90
3334;DHT22;1679;50.392;8.008;2023-02-04T09:12:59;7.70;99.90
3334;DHT22;1679;50.392;8.008;2023-02-04T09:15:24;7.80;99.90
3334;DHT22;1679;50.392;8.008;2023-02-04T09:17:51;7.90;99.90
3334;DHT22;1679;50.392;8.008;2023-02-04T09:20:29;7.90;99.90
3334;DHT22;1679;50.392;8.008;2023-02-04T09:22:55;8.00;99.90
3334;DHT22;1679;50.392;8.008;2023-02-04T09:25:20;8.00;99.90
3334;DHT22;1679;50.392;8.008;2023-02-04T09:27:46;8.30;99.90
3334;DHT22;1679;50.392;8.008;2023-02-04T09:30:12;8.30;99.90
3334;DHT22;1679;50.392;8.008;2023-02-04T09:32:37;8.40;99.90
3334;DHT22;1679;50.392;8.008;2023-02-04T09:35:03;8.40;99.90
3334;DHT22;1679;50.392;8.008;2023-02-04T09:37:29;8.30;99.90
3334;DHT22;1679;50.392;8.008;2023-02-04T09:39:54;8.20;99.90
3334;DHT22;1679;50.392;8.008;2023-02-04T09:42:21;8.30;99.90
3334;DHT22;1679;50.392;8.008;2023-02-04T09:44:48;8.30;99.90
3334;DHT22;1679;50.392;8.008;2023-02-04T09:47:22;8.20;99.90
3334;DHT22;1679;50.392;8.008;2023-02-04T09:49:50;8.10;99.90
3334;DHT22;1679;50.392;8.008;2023-02-04T09:52:17;8.20;99.90
3334;DHT22;1679;50.392;8.008;2023-02-04T09:54:44;8.20;99.90
3334;DHT22;1679;50.392;8.008;2023-02-04T09:57:20;8.30;99.90
3334;DHT22;1679;50.392;8.008;2023-02-04T09:59:46;8.30;99.90
3334;DHT22;1679;50.392;8.008;2023-02-04T10:02:23;8.40;99.90
3334;DHT22;1679;50.392;8.008;2023-02-04T10:04:51;8.40;99.90
3334;DHT22;1679;50.392;8.008;2023-02-04T10:07:20;8.50;99.90
3334;DHT22;1679;50.392;8.008;2023-02-04T10:09:48;8.60;99.90
3334;DHT22;1679;50.392;8.008;2023-02-04T10:12:14;8.70;99.90
3334;DHT22;1679;50.392;8.008;2023-02-04T10:14:40;8.80;99.90
3334;DHT22;1679;50.392;8.008;2023-02-04T10:17:08;9.10;99.90
3334;DHT22;1679;50.392;8.008;2023-02-04T10:19:34;9.30;99.90
3334;DHT22;1679;50.392;8.008;2023-02-04T10:22:02;9.30;99.90
3334;DHT22;1679;50.392;8.008;2023-02-04T10:24:29;9.00;99.90
3334;DHT22;1679;50.392;8.008;2023-02-04T10:27:07;8.80;99.90
3334;DHT22;1679;50.392;8.008;2023-02-04T10:29:33;8.50;99.90
3334;DHT22;1679;50.392;8.008;2023-02-04T10:31:58;8.30;99.90
3334;DHT22;1679;50.392;8.008;2023-02-04T10:34:37;8.20;99.90
3334;DHT22;1679;50.392;8.008;2023-02-04T10:37:33;8.20;99.90
3334;DHT22;1679;50.392;8.008;2023-02-04T10:40:00;8.30;99.90
3334;DHT22;1679;50.392;8.008;2023-02-04T10:42:28;8.50;99.90
3334;DHT22;1679;50.392;8.008;2023-02-04T10:45:27;8.60;99.90
3334;DHT22;1679;50.392;8.008;2023-02-04T10:47:54;8.70;99.90
3334;DHT22;1679;50.392;8.008;2023-02-04T10:50:22;8.90;99.90
3334;DHT22;1679;50.392;8.008;2023-02-04T10:52:56;8.90;99.90
3334;DHT22;1679;50.392;8.008;2023-02-04T10:55:43;9.00;99.90
3334;DHT22;1679;50.392;8.008;2023-02-04T10:58:11;9.20;99.90
3334;DHT22;1679;50.392;8.008;2023-02-04T11:00:38;9.10;99.90
3334;DHT22;1679;50.392;8.008;2023-02-04T11:03:18;9.10;99.90
3334;DHT22;1679;50.392;8.008;2023-02-04T11:05:45;9.10;99.90
3334;DHT22;1679;50.392;8.008;2023-02-04T11:08:31;9.00;99.90
3334;DHT22;1679;50.392;8.008;2023-02-04T11:11:13;8.90;99.90
3334;DHT22;1679;50.392;8.008;2023-02-04T11:13:56;8.80;99.90
3334;DHT22;1679;50.392;8.008;2023-02-04T11:18:52;8.70;99.90
3334;DHT22;1679;50.392;8.008;2023-02-04T11:26:43;8.50;99.90
3334;DHT22;1679;50.392;8.008;2023-02-04T11:29:26;8.40;99.90
3334;DHT22;1679;50.392;8.008;2023-02-04T11:36:54;8.60;99.90
3334;DHT22;1679;50.392;8.008;2023-02-04T11:39:20;8.80;99.90
3334;DHT22;1679;50.392;8.008;2023-02-04T11:41:46;9.00;99.90
3334;DHT22;1679;50.392;8.008;2023-02-04T11:44:15;9.20;99.90
3334;DHT22;1679;50.392;8.008;2023-02-04T11:46:47;9.40;99.90
3334;DHT22;1679;50.392;8.008;2023-02-04T11:49:18;9.50;99.90
3334;DHT22;1679;50.392;8.008;2023-02-04T11:51:45;9.60;99.90
3334;DHT22;1679;50.392;8.008;2023-02-04T11:54:12;9.70;99.90
3334;DHT22;1679;50.392;8.008;2023-02-04T11:56:38;9.70;99.90
3334;DHT22;1679;50.392;8.008;2023-02-04T11:59:04;9.70;99.90
3334;DHT22;1679;50.392;8.008;2023-02-04T12:01:31;9.70;99.90
3334;DHT22;1679;50.392;8.008;2023-02-04T12:04:02;9.80;99.90
3334;DHT22;1679;50.392;8.008;2023-02-04T12:06:37;9.70;99.90
3334;DHT22;1679;50.392;8.008;2023-02-04T12:11:51;9.40;99.90
3334;DHT22;1679;50.392;8.008;2023-02-04T12:14:17;9.30;99.90
3334;DHT22;1679;50.392;8.008;2023-02-04T12:16:48;9.30;99.90
3334;DHT22;1679;50.392;8.008;2023-02-04T12:19:16;9.30;99.90
3334;DHT22;1679;50.392;8.008;2023-02-04T12:21:41;9.40;99.90
3334;DHT22;1679;50.392;8.008;2023-02-04T12:24:07;9.50;99.90
3334;DHT22;1679;50.392;8.008;2023-02-04T12:26:33;9.60;99.90
3334;DHT22;1679;50.392;8.008;2023-02-04T12:28:58;9.70;99.90
3334;DHT22;1679;50.392;8.008;2023-02-04T12:31:28;9.70;99.90
3334;DHT22;1679;50.392;8.008;2023-02-04T12:33:54;9.50;99.90
3334;DHT22;1679;50.392;8.008;2023-02-04T12:36:20;9.50;99.90
3334;DHT22;1679;50.392;8.008;2023-02-04T12:38:45;9.40;99.90
3334;DHT22;1679;50.392;8.008;2023-02-04T12:41:11;9.40;99.90
3334;DHT22;1679;50.392;8.008;2023-02-04T12:43:36;9.50;99.90
3334;DHT22;1679;50.392;8.008;2023-02-04T12:46:02;9.60;99.90
3334;DHT22;1679;50.392;8.008;2023-02-04T12:48:28;9.70;99.90
3334;DHT22;1679;50.392;8.008;2023-02-04T12:50:53;9.60;99.90
3334;DHT22;1679;50.392;8.008;2023-02-04T12:53:19;9.80;99.90
3334;DHT22;1679;50.392;8.008;2023-02-04T12:55:45;9.80;99.90
3334;DHT22;1679;50.392;8.008;2023-02-04T12:58:10;9.90;99.90
3334;DHT22;1679;50.392;8.008;2023-02-04T13:00:37;9.80;99.90
3334;DHT22;1679;50.392;8.008;2023-02-04T13:03:03;9.70;99.90
3334;DHT22;1679;50.392;8.008;2023-02-04T13:05:29;9.50;99.90
3334;DHT22;1679;50.392;8.008;2023-02-04T13:07:55;9.40;99.90
3334;DHT22;1679;50.392;8.008;2023-02-04T13:10:22;9.30;99.90
3334;DHT22;1679;50.392;8.008;2023-02-04T13:12:48;9.10;99.90
3334;DHT22;1679;50.392;8.008;2023-02-04T13:15:14;9.10;99.90
3334;DHT22;1679;50.392;8.008;2023-02-04T13:17:39;9.10;99.90
3334;DHT22;1679;50.392;8.008;2023-02-04T13:20:06;9.10;99.90
3334;DHT22;1679;50.392;8.008;2023-02-04T13:22:31;9.10;99.90
3334;DHT22;1679;50.392;8.008;2023-02-04T13:24:57;9.20;99.90
3334;DHT22;1679;50.392;8.008;2023-02-04T13:27:23;9.40;99.90
3334;DHT22;1679;50.392;8.008;2023-02-04T13:29:48;9.50;99.90
3334;DHT22;1679;50.392;8.008;2023-02-04T13:32:14;9.50;99.90
3334;DHT22;1679;50.392;8.008;2023-02-04T13:34:40;9.60;99.90
3334;DHT22;1679;50.392;8.008;2023-02-04T13:37:05;9.60;99.90
3334;DHT22;1679;50.392;8.008;2023-02-04T13:39:31;9.80;99.90
3334;DHT22;1679;50.392;8.008;2023-02-04T13:41:57;9.70;99.90
3334;DHT22;1679;50.392;8.008;2023-02-04T13:44:23;9.60;99.90
3334;DHT22;1679;50.392;8.008;2023-02-04T13:46:50;9.60;99.90
3334;DHT22;1679;50.392;8.008;2023-02-04T13:49:16;9.50;99.90
3334;DHT22;1679;50.392;8.008;2023-02-04T13:51:43;9.50;99.90
3334;DHT22;1679;50.392;8.008;2023-02-04T13:54:09;9.60;99.90
3334;DHT22;1679;50.392;8.008;2023-02-04T13:56:35;9.70;99.90
3334;DHT22;1679;50.392;8.008;2023-02-04T13:59:02;9.90;99.90
3334;DHT22;1679;50.392;8.008;2023-02-04T14:01:27;9.90;99.90
3334;DHT22;1679;50.392;8.008;2023-02-04T14:03:53;9.90;99.90
3334;DHT22;1679;50.392;8.008;2023-02-04T14:06:20;9.90;99.90
3334;DHT22;1679;50.392;8.008;2023-02-04T14:08:46;9.80;99.90
3334;DHT22;1679;50.392;8.008;2023-02-04T14:11:12;9.90;99.90
3334;DHT22;1679;50.392;8.008;2023-02-04T14:13:38;10.00;99.90
3334;DHT22;1679;50.392;8.008;2023-02-04T14:16:06;10.10;99.90
3334;DHT22;1679;50.392;8.008;2023-02-04T14:18:33;10.20;99.90
3334;DHT22;1679;50.392;8.008;2023-02-04T14:20:59;10.20;99.90
3334;DHT22;1679;50.392;8.008;2023-02-04T14:23:25;10.10;99.90
3334;DHT22;1679;50.392;8.008;2023-02-04T14:25:53;10.10;99.90
3334;DHT22;1679;50.392;8.008;2023-02-04T14:28:18;10.10;99.90
3334;DHT22;1679;50.392;8.008;2023-02-04T14:30:44;10.00;99.90
3334;DHT22;1679;50.392;8.008;2023-02-04T14:33:10;10.00;99.90
3334;DHT22;1679;50.392;8.008;2023-02-04T14:35:36;9.90;99.90
3334;DHT22;1679;50.392;8.008;2023-02-04T14:38:02;9.90;99.90
3334;DHT22;1679;50.392;8.008;2023-02-04T14:40:28;10.00;99.90
3334;DHT22;1679;50.392;8.008;2023-02-04T14:42:54;10.00;99.90
3334;DHT22;1679;50.392;8.008;2023-02-04T14:45:20;9.90;99.90
3334;DHT22;1679;50.392;8.008;2023-02-04T14:47:45;9.90;99.90
3334;DHT22;1679;50.392;8.008;2023-02-04T14:50:15;10.00;99.90
3334;DHT22;1679;50.392;8.008;2023-02-04T14:52:43;10.00;99.90
3334;DHT22;1679;50.392;8.008;2023-02-04T14:55:09;10.00;99.90
3334;DHT22;1679;50.392;8.008;2023-02-04T14:57:36;9.90;99.90
3334;DHT22;1679;50.392;8.008;2023-02-04T15:00:02;10.00;99.90
3334;DHT22;1679;50.392;8.008;2023-02-04T15:02:28;9.90;99.90
3334;DHT22;1679;50.392;8.008;2023-02-04T15:05:03;10.00;99.90
3334;DHT22;1679;50.392;8.008;2023-02-04T15:07:29;9.90;99.90
3334;DHT22;1679;50.392;8.008;2023-02-04T15:09:54;9.80;99.90
3334;DHT22;1679;50.392;8.008;2023-02-04T15:12:20;9.80;99.90
3334;DHT22;1679;50.392;8.008;2023-02-04T15:14:46;9.80;99.90
3334;DHT22;1679;50.392;8.008;2023-02-04T15:17:12;9.80;99.90
3334;DHT22;1679;50.392;8.008;2023-02-04T15:19:37;9.80;99.90
3334;DHT22;1679;50.392;8.008;2023-02-04T15:22:03;9.80;99.90
3334;DHT22;1679;50.392;8.008;2023-02-04T15:24:32;9.70;99.90
3334;DHT22;1679;50.392;8.008;2023-02-04T15:26:58;9.70;99.90
3334;DHT22;1679;50.392;8.008;2023-02-04T15:29:23;9.70;99.90
3334;DHT22;1679;50.392;8.008;2023-02-04T15:31:49;9.60;99.90
3334;DHT22;1679;50.392;8.008;2023-02-04T15:34:15;9.50;99.90
3334;DHT22;1679;50.392;8.008;2023-02-04T15:36:42;9.40;99.90
3334;DHT22;1679;50.392;8.008;2023-02-04T15:39:08;9.30;99.90
3334;DHT22;1679;50.392;8.008;2023-02-04T15:41:33;9.20;99.90
3334;DHT22;1679;50.392;8.008;2023-02-04T15:44:00;9.20;99.90
3334;DHT22;1679;50.392;8.008;2023-02-04T15:46:26;9.20;99.90
3334;DHT22;1679;50.392;8.008;2023-02-04T15:48:51;9.20;99.90
3334;DHT22;1679;50.392;8.008;2023-02-04T15:51:17;9.10;99.90
3334;DHT22;1679;50.392;8.008;2023-02-04T15:53:42;9.00;99.90
3334;DHT22;1679;50.392;8.008;2023-02-04T15:56:08;8.90;99.90
3334;DHT22;1679;50.392;8.008;2023-02-04T15:58:35;8.90;99.90
3334;DHT22;1679;50.392;8.008;2023-02-04T16:01:01;8.90;99.90
3334;DHT22;1679;50.392;8.008;2023-02-04T16:03:26;8.80;99.90
3334;DHT22;1679;50.392;8.008;2023-02-04T16:05:52;8.80;99.90
3334;DHT22;1679;50.392;8.008;2023-02-04T16:08:20;8.80;99.90
3334;DHT22;1679;50.392;8.008;2023-02-04T16:10:45;8.70;99.90
3334;DHT22;1679;50.392;8.008;2023-02-04T16:13:11;8.60;99.90
3334;DHT22;1679;50.392;8.008;2023-02-04T16:15:36;8.50;99.90
3334;DHT22;1679;50.392;8.008;2023-02-04T16:18:02;8.40;99.90
3334;DHT22;1679;50.392;8.008;2023-02-04T16:20:28;8.30;99.90
3334;DHT22;1679;50.392;8.008;2023-02-04T16:22:53;8.20;99.90
3334;DHT22;1679;50.392;8.008;2023-02-04T16:25:19;8.10;99.90
3334;DHT22;1679;50.392;8.008;2023-02-04T16:27:44;8.10;99.90
3334;DHT22;1679;50.392;8.008;2023-02-04T16:30:10;8.20;99.90